Time;durP1;ratioP1;P1;durP2;ratioP2;P2;SDS_P1;SDS_P2;PMS_P1;PMS_P2;Temp;Humidity;BMP_temperature;BMP_pressure;BME280_temperature;BME280_humidity;BME280_pressure;Samples;Min_cycle;Max_cycle;Signal;HPM_P1;HPM_P2
2023/08/05 00:00:45;;;;;;;6.60;3.35;;;;;;;-146.27;97.12;82530.84;5043019;28;21338;-73
2023/08/05 00:03:10;;;;;;;9.45;3.35;;;;;;;-146.27;98.36;82603.16;5052309;28;20028;-72
2023/08/05 00:05:37;;;;;;;14.38;5.18;;;;;;;-146.27;98.22;82520.78;5033025;28;20401;-73
2023/08/05 00:08:04;;;;;;;9.57;3.83;;;;;;;-146.27;97.43;82512.75;5030992;28;20029;-73
2023/08/05 00:10:30;;;;;;;5.80;3.33;;;;;;;-146.27;97.67;82476.59;5024561;28;20040;-72
2023/08/05 00:12:55;;;;;;;7.05;3.25;;;;;;;-146.27;97.28;82468.56;5024574;28;20029;-74
2023/08/05 00:15:21;;;;;;;7.80;3.20;;;;;;;-146.27;97.38;82466.56;5025939;28;20029;-72
2023/08/05 00:17:46;;;;;;;9.00;3.25;;;;;;;-146.27;98.34;82496.69;5024628;28;20033;-72
2023/08/05 00:20:12;;;;;;;6.93;3.35;;;;;;;-146.27;97.70;82488.66;5024608;28;20395;-73
2023/08/05 00:22:37;;;;;;;6.97;3.55;;;;;;;-146.27;97.93;82448.47;5024219;28;20044;-73
2023/08/05 00:25:03;;;;;;;10.77;3.75;;;;;;;-146.27;98.29;82432.41;5025636;28;20021;-73
2023/08/05 00:27:29;;;;;;;5.80;3.30;;;;;;;-146.27;99.36;82460.53;5027523;28;20033;-73
2023/08/05 00:29:54;;;;;;;5.18;2.95;;;;;;;-146.27;99.33;82412.31;5026942;28;20067;-73
2023/08/05 00:32:19;;;;;;;8.77;3.67;;;;;;;-146.27;98.91;82408.28;5027493;28;20064;-73
2023/08/05 00:34:45;;;;;;;5.55;2.95;;;;;;;-146.27;98.39;82388.22;5026738;28;20048;-72
2023/08/05 00:37:10;;;;;;;7.93;3.72;;;;;;;-146.27;98.89;82404.28;5031784;28;20100;-72
2023/08/05 00:39:36;;;;;;;8.15;3.13;;;;;;;-146.27;99.07;82364.09;5032259;28;20052;-72
2023/08/05 00:42:01;;;;;;;7.10;3.50;;;;;;;-146.27;98.55;82360.09;5031809;28;20075;-72
2023/08/05 00:44:27;;;;;;;10.35;3.78;;;;;;;-146.27;99.67;82346.03;5032429;28;20032;-72
2023/08/05 00:46:52;;;;;;;6.18;3.13;;;;;;;-146.27;98.04;82323.91;5032164;28;20033;-72
2023/08/05 00:49:19;;;;;;;6.13;3.13;;;;;;;-146.27;98.63;82333.97;5048674;28;20388;-72
2023/08/05 00:51:44;;;;;;;8.10;3.92;;;;;;;-146.27;97.68;82313.88;5031899;28;20036;-72
2023/08/05 00:54:10;;;;;;;8.70;3.50;;;;;;;-146.27;96.18;82281.75;5015162;28;20029;-71
2023/08/05 00:56:36;;;;;;;6.80;3.65;;;;;;;-146.27;96.22;82311.88;5024413;28;20108;-72
2023/08/05 00:59:02;;;;;;;7.55;4.13;;;;;;;-146.27;96.79;82311.88;5030890;28;20087;-72
2023/08/05 01:01:27;;;;;;;5.43;3.95;;;;;;;-146.27;97.04;82342.00;5031286;28;20484;-72
2023/08/05 01:03:53;;;;;;;5.25;3.53;;;;;;;-146.27;97.54;82317.91;5028187;28;20503;-72
2023/08/05 01:06:20;;;;;;;8.05;3.97;;;;;;;-146.27;97.59;82307.84;5029529;28;20045;-72
2023/08/05 01:08:47;;;;;;;10.52;4.40;;;;;;;-146.27;97.85;82303.84;5029962;28;20396;-72
2023/08/05 01:11:13;;;;;;;6.35;3.80;;;;;;;-146.27;98.06;82291.78;5031160;28;20029;-72
2023/08/05 01:13:42;;;;;;;8.57;4.07;;;;;;;-146.27;97.40;82281.75;5029442;28;20400;-72
2023/08/05 01:16:07;;;;;;;9.68;3.90;;;;;;;-146.27;97.84;82299.81;5028910;28;20577;-72
2023/08/05 01:18:36;;;;;;;10.13;4.65;;;;;;;-146.27;98.22;82291.78;5027742;28;20041;-72
2023/08/05 01:21:03;;;;;;;10.82;3.67;;;;;;;-146.27;97.94;82265.66;5029214;28;20116;-72
2023/08/05 01:23:59;;;;;;;6.68;4.05;;;;;;;-146.27;97.05;82291.78;5031610;28;20500;-72
2023/08/05 01:26:25;;;;;;;6.57;3.88;;;;;;;-146.27;96.67;82277.72;5032027;28;20037;-72
2023/08/05 01:28:51;;;;;;;7.35;4.30;;;;;;;-146.27;97.32;82295.81;5030208;28;20029;-72
2023/08/05 01:31:16;;;;;;;12.40;4.45;;;;;;;-146.27;97.43;82295.81;5027567;28;20401;-72
2023/08/05 01:33:42;;;;;;;8.85;4.45;;;;;;;-146.27;98.01;82291.78;5027957;28;20492;-72
2023/08/05 01:36:08;;;;;;;10.90;4.78;;;;;;;-146.27;98.03;82283.75;5031144;28;20034;-72
2023/08/05 01:38:33;;;;;;;6.47;3.88;;;;;;;-146.27;97.48;82259.66;5031278;28;20040;-72
2023/08/05 01:40:59;;;;;;;10.45;3.83;;;;;;;-146.27;97.04;82269.69;5031166;28;20119;-71
2023/08/05 01:43:24;;;;;;;11.13;4.10;;;;;;;-146.27;97.11;82285.75;5031478;28;20167;-72
2023/08/05 01:45:49;;;;;;;16.63;4.68;;;;;;;-146.27;97.95;82289.78;5026354;28;20029;-72
2023/08/05 01:48:15;;;;;;;7.78;3.70;;;;;;;-146.27;96.46;82275.72;5029033;28;20032;-72
2023/08/05 01:50:40;;;;;;;6.85;3.72;;;;;;;-146.27;96.57;82255.63;5028014;28;20021;-72
2023/08/05 01:53:05;;;;;;;9.10;3.85;;;;;;;-146.27;96.54;82295.81;5029878;28;20029;-72
2023/08/05 01:55:31;;;;;;;10.52;4.03;;;;;;;-146.27;96.12;82303.84;5027130;28;20022;-72
2023/08/05 01:57:56;;;;;;;8.13;4.55;;;;;;;-146.27;97.22;82315.88;5024474;28;20112;-72
2023/08/05 02:00:21;;;;;;;10.93;3.95;;;;;;;-146.27;96.79;82313.88;5027179;28;20036;-72
2023/08/05 02:02:47;;;;;;;6.45;4.15;;;;;;;-146.27;96.88;82301.81;5028275;28;20507;-72
2023/08/05 02:05:12;;;;;;;5.30;3.45;;;;;;;-146.27;96.37;82267.69;5030446;28;20056;-73
2023/08/05 02:07:38;;;;;;;10.57;3.78;;;;;;;-146.27;95.86;82307.84;5030410;28;20024;-71
2023/08/05 02:10:03;;;;;;;8.65;3.75;;;;;;;-146.27;96.01;82329.94;5028306;28;20122;-72
2023/08/05 02:12:29;;;;;;;9.23;4.18;;;;;;;-146.27;96.52;82315.88;5029213;28;20512;-72
2023/08/05 02:14:54;;;;;;;9.65;4.25;;;;;;;-146.27;96.97;82342.00;5031120;28;20025;-73
2023/08/05 02:17:21;;;;;;;7.25;3.42;;;;;;;-146.27;97.23;82293.78;5027940;28;20112;-73
2023/08/05 02:19:46;;;;;;;9.98;4.40;;;;;;;-146.27;97.17;82259.66;5027336;28;20033;-74
2023/08/05 02:22:12;;;;;;;6.15;3.83;;;;;;;-146.27;97.63;82303.84;5031015;28;20029;-73
2023/08/05 02:24:37;;;;;;;6.35;3.35;;;;;;;-146.27;97.35;82275.72;5029264;28;20037;-74
2023/08/05 02:27:03;;;;;;;6.32;3.45;;;;;;;-146.27;97.39;82303.84;5023627;28;20392;-73
2023/08/05 02:29:28;;;;;;;8.02;3.60;;;;;;;-146.27;98.42;82329.94;5020769;28;20048;-73
2023/08/05 02:31:53;;;;;;;6.78;3.35;;;;;;;-146.27;99.00;82281.75;5019978;28;20470;-73
2023/08/05 02:34:19;;;;;;;5.10;3.50;;;;;;;-146.27;97.92;82311.88;5023331;28;20045;-73
2023/08/05 02:36:44;;;;;;;7.40;3.50;;;;;;;-146.27;98.33;82350.03;5027052;28;20025;-73
2023/08/05 02:39:10;;;;;;;9.68;3.33;;;;;;;-146.27;97.23;82352.03;5023250;28;20116;-73
2023/08/05 02:41:35;;;;;;;4.97;2.97;;;;;;;-146.27;97.44;82321.91;5023558;28;20397;-73
2023/08/05 02:44:00;;;;;;;5.18;2.67;;;;;;;-146.27;97.92;82335.97;5022842;28;20252;-74
2023/08/05 02:46:26;;;;;;;5.70;3.33;;;;;;;-146.27;98.62;82352.03;5021547;28;20025;-74
2023/08/05 02:48:51;;;;;;;6.95;3.85;;;;;;;-146.27;97.83;82340.00;5023094;28;20021;-73
2023/08/05 02:51:17;;;;;;;9.35;3.30;;;;;;;-146.27;98.68;82325.94;5021596;28;20038;-73
2023/08/05 02:53:42;;;;;;;7.63;3.63;;;;;;;-146.27;98.69;82313.88;5023292;28;20028;-74
2023/08/05 02:56:07;;;;;;;9.82;4.88;;;;;;;-146.27;98.55;82327.94;5029762;28;20112;-73
2023/08/05 02:58:33;;;;;;;6.35;3.90;;;;;;;-146.27;98.59;82360.09;5029023;28;20022;-74
2023/08/05 03:01:11;;;;;;;7.40;3.45;;;;;;;-146.27;98.71;82342.00;5025414;28;20037;-72
2023/08/05 03:03:37;;;;;;;8.25;3.97;;;;;;;-146.27;99.06;82323.91;5019859;28;20488;-72
2023/08/05 03:06:02;;;;;;;9.32;4.45;;;;;;;-146.27;99.24;82331.97;5028909;28;20053;-72
2023/08/05 03:08:27;;;;;;;9.05;3.95;;;;;;;-146.27;98.91;82315.88;5028686;28;20029;-72
2023/08/05 03:11:00;;;;;;;10.15;4.35;;;;;;;-146.27;98.93;82307.84;5030891;28;20025;-74
2023/08/05 03:13:26;;;;;;;11.27;4.75;;;;;;;-146.27;98.76;82279.72;5030901;28;20053;-74
2023/08/05 03:15:53;;;;;;;7.35;4.03;;;;;;;-146.27;98.20;82315.88;5031703;28;20432;-73
2023/08/05 03:18:19;;;;;;;7.57;4.18;;;;;;;-146.27;98.07;82335.97;5027367;28;20095;-73
2023/08/05 03:20:45;;;;;;;5.45;3.50;;;;;;;-146.27;98.15;82303.84;5027369;28;20426;-73
2023/08/05 03:23:10;;;;;;;7.22;3.80;;;;;;;-146.27;98.39;82315.88;5030596;28;20428;-73
2023/08/05 03:25:36;;;;;;;6.07;4.07;;;;;;;-146.27;98.00;82335.97;5030151;28;20074;-73
2023/08/05 03:28:02;;;;;;;7.72;4.05;;;;;;;-146.27;98.41;82323.91;5031672;28;20104;-73
2023/08/05 03:30:27;;;;;;;5.90;4.13;;;;;;;-146.27;98.28;82303.84;5032294;28;20044;-73
2023/08/05 03:32:53;;;;;;;5.28;3.40;;;;;;;-146.27;98.70;82327.94;5032667;28;20076;-73
2023/08/05 03:35:18;;;;;;;7.47;4.22;;;;;;;-146.27;98.17;82327.94;5033000;28;20472;-73
2023/08/05 03:37:45;;;;;;;11.57;5.70;;;;;;;-146.27;98.63;82299.81;5034149;28;20117;-73
2023/08/05 03:40:11;;;;;;;8.10;4.15;;;;;;;-146.27;98.55;82337.97;5029356;28;20053;-73
2023/08/05 03:42:36;;;;;;;8.70;3.72;;;;;;;-146.27;99.03;82327.94;5033193;28;20109;-73
2023/08/05 03:45:04;;;;;;;9.35;4.35;;;;;;;-146.27;99.44;82344.00;5020125;28;20445;-73
2023/08/05 03:47:29;;;;;;;6.05;4.25;;;;;;;-146.27;99.28;82331.97;5021315;28;20461;-73
2023/08/05 03:49:55;;;;;;;7.10;3.72;;;;;;;-146.27;99.35;82329.94;5031529;28;20067;-73
2023/08/05 03:52:20;;;;;;;7.60;4.72;;;;;;;-146.27;99.08;82327.94;5033073;28;20476;-73
2023/08/05 03:54:46;;;;;;;11.40;4.47;;;;;;;-146.27;98.98;82269.69;5034084;28;20021;-73
2023/08/05 03:57:11;;;;;;;8.25;4.80;;;;;;;-146.27;98.59;82329.94;5032491;28;20025;-73
2023/08/05 03:59:36;;;;;;;6.80;4.50;;;;;;;-146.27;98.80;82307.84;5030414;28;20164;-72
2023/08/05 04:02:03;;;;;;;7.28;3.97;;;;;;;-146.27;97.46;82350.03;5029454;28;20037;-73
2023/08/05 04:04:28;;;;;;;9.80;4.30;;;;;;;-146.27;98.45;82311.88;5030094;28;20044;-73
2023/08/05 04:06:54;;;;;;;8.02;4.05;;;;;;;-146.27;98.66;82342.00;5033745;28;20432;-73
2023/08/05 04:09:20;;;;;;;10.90;4.18;;;;;;;-146.27;98.73;82315.88;5033476;28;20117;-74
2023/08/05 04:11:48;;;;;;;11.93;4.05;;;;;;;-146.27;99.00;82307.84;5032569;28;20025;-73
2023/08/05 04:14:15;;;;;;;6.88;3.92;;;;;;;-146.27;99.37;82329.94;5032223;28;20112;-73
2023/08/05 04:16:41;;;;;;;7.68;3.75;;;;;;;-146.27;99.16;82350.03;5030693;28;20109;-73
2023/08/05 04:19:07;;;;;;;9.27;4.22;;;;;;;-146.27;99.50;82356.06;5028120;28;20116;-73
2023/08/05 04:21:39;;;;;;;8.45;3.95;;;;;;;-146.27;98.88;82340.00;5033494;28;20026;-73
2023/08/05 04:24:07;;;;;;;10.95;4.35;;;;;;;-146.27;97.96;82356.06;5031804;28;20060;-73
2023/08/05 04:26:35;;;;;;;10.25;4.80;;;;;;;-146.27;97.94;82317.91;5024746;28;20108;-73
2023/08/05 04:29:01;;;;;;;6.93;5.18;;;;;;;-146.27;97.68;82368.13;5025260;28;20048;-73
2023/08/05 04:31:26;;;;;;;10.88;5.22;;;;;;;-146.27;97.70;82307.84;5024370;28;20030;-74
2023/08/05 04:33:52;;;;;;;17.05;4.53;;;;;;;-146.27;97.18;82368.13;5024118;28;20043;-73
2023/08/05 04:36:17;;;;;;;9.63;4.35;;;;;;;-146.27;96.90;82374.13;5023576;28;20028;-74
2023/08/05 04:38:43;;;;;;;10.20;4.25;;;;;;;-146.27;97.41;82352.03;5025758;28;20024;-74
2023/08/05 04:41:08;;;;;;;8.10;4.40;;;;;;;-146.27;97.21;82376.16;5023293;28;20449;-73
2023/08/05 04:43:33;;;;;;;8.68;4.22;;;;;;;-146.27;97.79;82364.09;5025127;28;20045;-71
2023/08/05 04:45:59;;;;;;;10.55;5.03;;;;;;;-146.27;98.17;82340.00;5022093;28;20044;-71
2023/08/05 04:48:24;;;;;;;6.97;4.10;;;;;;;-146.27;98.02;82364.09;5016169;28;20021;-72
2023/08/05 04:50:49;;;;;;;10.25;4.07;;;;;;;-146.27;97.51;82319.91;5026402;28;20476;-72
2023/08/05 04:53:15;;;;;;;8.32;4.63;;;;;;;-146.27;97.79;82321.91;5020610;28;20441;-72
2023/08/05 04:55:41;;;;;;;5.60;4.00;;;;;;;-146.27;98.33;82327.94;5027125;28;20171;-71
2023/08/05 04:58:08;;;;;;;8.23;5.10;;;;;;;-146.27;98.36;82360.09;5029705;28;20108;-71
2023/08/05 05:00:34;;;;;;;8.98;3.97;;;;;;;-146.27;98.10;82368.13;5027190;28;20033;-72
2023/08/05 05:02:59;;;;;;;10.30;4.22;;;;;;;-146.27;98.28;82331.97;5026769;28;20033;-72
2023/08/05 05:05:25;;;;;;;9.15;4.55;;;;;;;-146.27;97.79;82348.03;5028528;28;20045;-72
2023/08/05 05:07:50;;;;;;;7.50;4.85;;;;;;;-146.27;97.32;82350.03;5032097;28;20022;-71
2023/08/05 05:10:16;;;;;;;11.25;5.15;;;;;;;-146.27;97.95;82340.00;5030598;28;20100;-73
2023/08/05 05:12:41;;;;;;;13.00;4.53;;;;;;;-146.27;98.13;82348.03;5028366;28;20075;-71
2023/08/05 05:15:07;;;;;;;11.27;4.65;;;;;;;-146.27;98.20;82346.03;5028800;28;20040;-72
2023/08/05 05:17:34;;;;;;;9.57;4.70;;;;;;;-146.27;97.44;82340.00;5022565;28;20033;-71
2023/08/05 05:20:00;;;;;;;12.98;4.70;;;;;;;-146.27;96.93;82344.00;5030004;28;20074;-72
2023/08/05 05:22:25;;;;;;;7.07;4.68;;;;;;;-146.27;97.75;82325.94;5030728;28;20033;-72
2023/08/05 05:24:51;;;;;;;7.45;4.30;;;;;;;-146.27;97.82;82340.00;5031868;28;20021;-72
2023/08/05 05:27:17;;;;;;;11.00;4.53;;;;;;;-146.27;97.54;82340.00;5025270;28;20096;-73
2023/08/05 05:29:44;;;;;;;8.45;4.75;;;;;;;-146.27;96.99;82309.88;5028018;28;20112;-72
2023/08/05 05:32:10;;;;;;;5.53;4.25;;;;;;;-146.27;96.84;82323.91;5027478;28;20467;-73
2023/08/05 05:34:35;;;;;;;8.93;4.80;;;;;;;-146.27;97.19;82301.81;5029646;28;20053;-72
2023/08/05 05:37:00;;;;;;;10.25;5.10;;;;;;;-146.27;97.45;82263.66;5029777;28;20025;-73
2023/08/05 05:39:26;;;;;;;9.98;6.07;;;;;;;-146.27;97.47;82295.81;5030876;28;20033;-72
2023/08/05 05:41:51;;;;;;;7.28;5.25;;;;;;;-146.27;97.21;82317.91;5029683;28;20029;-72
2023/08/05 05:44:17;;;;;;;9.30;5.40;;;;;;;-146.27;97.37;82295.81;5030611;28;20049;-71
2023/08/05 05:46:43;;;;;;;10.70;4.70;;;;;;;-146.27;96.90;82299.81;5028106;28;20032;-73
2023/08/05 05:49:10;;;;;;;10.43;5.35;;;;;;;-146.27;96.94;82249.59;5030292;28;20067;-73
2023/08/05 05:51:35;;;;;;;12.73;5.53;;;;;;;-146.27;97.17;82247.59;5027938;28;20036;-72
2023/08/05 05:54:01;;;;;;;8.38;5.00;;;;;;;-146.27;97.13;82307.84;5026390;28;20025;-73
2023/08/05 05:56:26;;;;;;;9.93;4.80;;;;;;;-146.27;97.48;82259.66;5024284;28;20436;-73
2023/08/05 05:58:52;;;;;;;6.72;4.40;;;;;;;-146.27;97.24;82279.72;5024084;28;20047;-73
2023/08/05 06:01:17;;;;;;;12.10;4.65;;;;;;;-146.27;96.86;82305.84;5022216;28;20087;-71
2023/08/05 06:03:42;;;;;;;8.70;4.45;;;;;;;-146.27;97.03;82281.75;5020186;28;20396;-74
2023/08/05 06:06:08;;;;;;;5.32;3.55;;;;;;;-146.27;96.88;82285.75;5019786;28;20065;-74
2023/08/05 06:08:36;;;;;;;9.07;4.00;;;;;;;-146.27;97.46;82259.66;5021208;28;20033;-73
2023/08/05 06:11:07;;;;;;;7.68;3.50;;;;;;;-146.27;97.07;82279.72;5023144;28;20030;-73
2023/08/05 06:13:32;;;;;;;6.47;3.20;;;;;;;-146.27;96.60;82291.78;5021957;28;20114;-74
2023/08/05 06:15:57;;;;;;;5.15;3.50;;;;;;;-146.27;96.36;82299.81;5029213;28;20124;-74
2023/08/05 06:18:23;;;;;;;6.18;2.78;;;;;;;-146.27;96.41;82241.56;5023317;28;20037;-74
2023/08/05 06:20:48;;;;;;;10.38;3.35;;;;;;;-146.27;96.21;82273.72;5021930;28;21871;-74
2023/08/05 06:23:14;;;;;;;4.28;3.80;;;;;;;-146.27;96.09;82265.66;5015279;28;20121;-74
2023/08/05 06:25:41;;;;;;;4.70;3.45;;;;;;;-146.27;96.23;82213.44;5034518;28;20063;-74
2023/08/05 06:28:06;;;;;;;7.35;3.33;;;;;;;-146.27;95.55;82243.56;5025755;28;20047;-74
2023/08/05 06:30:32;;;;;;;6.80;3.20;;;;;;;-146.27;95.28;82181.31;5022460;28;20037;-74
2023/08/05 06:32:57;;;;;;;11.50;4.32;;;;;;;-146.27;95.25;82157.19;5022912;28;20029;-72
2023/08/05 06:35:23;;;;;;;7.80;3.58;;;;;;;-146.27;93.97;82207.41;5022673;28;20030;-74
2023/08/05 06:37:48;;;;;;;6.07;4.88;;;;;;;-146.27;93.69;82183.31;5021327;28;20027;-74
2023/08/05 06:40:15;;;;;;;12.43;5.13;;;;;;;-146.27;92.80;82149.16;5022068;28;20041;-74
2023/08/05 06:42:41;;;;;;;8.13;4.75;;;;;;;-146.27;92.52;82092.91;5019694;28;20022;-74
2023/08/05 06:45:06;;;;;;;9.45;6.18;;;;;;;-146.27;91.24;82082.88;5023049;28;20498;-74
2023/08/05 06:47:33;;;;;;;5.50;4.10;;;;;;;-146.27;90.89;82022.63;5020972;28;20021;-74
2023/08/05 06:49:58;;;;;;;8.55;5.75;;;;;;;-146.27;90.33;81970.41;5021298;28;20017;-74
2023/08/05 06:52:24;;;;;;;9.13;4.93;;;;;;;-146.27;89.63;82008.56;5022125;28;21927;-74
2023/08/05 06:54:49;;;;;;;6.75;4.72;;;;;;;-146.27;87.90;82018.59;5021973;28;20025;-74
2023/08/05 06:57:14;;;;;;;11.05;6.07;;;;;;;-146.27;87.08;82016.59;5023352;28;20464;-73
2023/08/05 06:59:40;;;;;;;7.07;4.72;;;;;;;-146.27;87.78;82042.69;5019904;28;20087;-74
2023/08/05 07:02:05;;;;;;;11.18;5.80;;;;;;;-146.27;87.84;82030.66;5021402;28;20022;-74
2023/08/05 07:04:32;;;;;;;9.43;5.50;;;;;;;-146.27;87.31;82034.66;5031930;28;20626;-74
2023/08/05 07:06:57;;;;;;;12.73;4.88;;;;;;;-146.27;87.89;81992.50;5035106;28;20022;-73
2023/08/05 07:09:22;;;;;;;8.10;4.63;;;;;;;-146.27;88.02;82010.56;5033094;28;20022;-74
2023/08/05 07:11:48;;;;;;;6.38;4.25;;;;;;;-146.27;87.53;81982.44;5032391;28;20021;-73
2023/08/05 07:14:13;;;;;;;7.75;4.32;;;;;;;-146.27;85.83;82008.56;5032122;28;20511;-74
2023/08/05 07:16:38;;;;;;;6.85;4.25;;;;;;;-146.27;85.46;81986.47;5030445;28;20026;-74
2023/08/05 07:19:04;;;;;;;7.75;4.38;;;;;;;-146.27;85.22;81994.50;5031825;28;20033;-74
2023/08/05 07:21:29;;;;;;;6.30;3.97;;;;;;;-146.27;85.01;82022.63;5031747;28;20072;-74
2023/08/05 07:23:55;;;;;;;6.72;3.75;;;;;;;-146.27;85.49;82010.56;5024472;28;20021;-73
2023/08/05 07:26:20;;;;;;;6.47;3.65;;;;;;;-146.27;86.06;82026.63;5030627;28;20025;-73
2023/08/05 07:28:45;;;;;;;8.40;3.53;;;;;;;-146.27;85.70;81990.47;5028151;28;20112;-74
2023/08/05 07:31:11;;;;;;;6.68;3.58;;;;;;;-146.27;85.29;81984.47;5023281;28;20037;-73
2023/08/05 07:33:37;;;;;;;7.63;3.40;;;;;;;-146.27;85.31;81948.31;5027122;28;20029;-74
2023/08/05 07:36:10;;;;;;;6.97;3.72;;;;;;;-146.27;84.33;81962.34;5028422;28;20022;-73
2023/08/05 07:38:38;;;;;;;8.70;4.43;;;;;;;-146.27;84.37;81926.22;5027135;28;20034;-73
2023/08/05 07:41:04;;;;;;;5.65;3.03;;;;;;;-146.27;84.48;81936.25;5026564;28;20029;-73
2023/08/05 07:43:32;;;;;;;6.93;3.90;;;;;;;-146.27;84.96;82002.53;5025717;28;20034;-73
2023/08/05 07:45:59;;;;;;;7.80;3.97;;;;;;;-146.27;85.97;82014.59;5026491;28;20079;-73
2023/08/05 07:48:25;;;;;;;8.00;4.05;;;;;;;-146.27;86.39;82010.56;5026907;28;20472;-74
2023/08/05 07:50:50;;;;;;;9.98;4.30;;;;;;;-146.27;85.68;81940.25;5025258;28;20121;-74
2023/08/05 07:53:19;;;;;;;8.68;4.72;;;;;;;-146.27;85.40;81958.34;5023228;28;20108;-74
2023/08/05 07:55:45;;;;;;;8.77;4.45;;;;;;;-146.27;85.22;81932.22;5022542;28;20473;-74
2023/08/05 07:58:11;;;;;;;9.32;4.38;;;;;;;-146.27;84.75;81902.09;5030762;28;20523;-73
2023/08/05 08:00:39;;;;;;;5.85;4.40;;;;;;;-146.27;83.89;81865.94;5028925;28;20029;-74
2023/08/05 08:03:05;;;;;;;7.47;4.00;;;;;;;-146.27;83.96;81880.00;5023024;28;20030;-73
2023/08/05 08:05:31;;;;;;;7.50;4.35;;;;;;;-146.27;83.53;81876.00;5026469;28;20052;-74
2023/08/05 08:07:57;;;;;;;6.68;4.85;;;;;;;-146.27;82.95;81809.72;5026925;28;20029;-73
2023/08/05 08:10:25;;;;;;;9.10;3.97;;;;;;;-146.27;82.71;81779.59;5022948;28;20559;-74
2023/08/05 08:12:53;;;;;;;8.10;3.80;;;;;;;-146.27;82.17;81777.56;5026309;28;20030;-70
2023/08/05 08:15:19;;;;;;;5.82;3.55;;;;;;;-146.27;81.09;81751.47;5025507;28;20041;-74
2023/08/05 08:17:45;;;;;;;8.30;3.72;;;;;;;-146.27;81.33;81807.69;5027642;28;20026;-75
2023/08/05 08:20:10;;;;;;;8.90;3.45;;;;;;;-146.27;81.27;81801.69;5032537;28;20030;-75
2023/08/05 08:22:36;;;;;;;5.47;3.00;;;;;;;-146.27;81.39;81737.41;5026984;28;20537;-73
2023/08/05 08:25:01;;;;;;;10.15;3.97;;;;;;;-146.27;81.51;81773.56;5028852;28;20522;-73
2023/08/05 08:27:27;;;;;;;8.90;4.00;;;;;;;-146.27;81.27;81775.56;5027883;28;20021;-76
2023/08/05 08:29:52;;;;;;;3.80;2.90;;;;;;;-146.27;81.32;81693.22;5027970;28;20021;-76
2023/08/05 08:32:18;;;;;;;4.25;3.38;;;;;;;-146.27;80.71;81677.16;5027259;28;20025;-76
2023/08/05 08:34:46;;;;;;;5.35;3.20;;;;;;;-146.27;80.26;81624.94;5030055;28;20030;-75
2023/08/05 08:37:20;;;;;;;4.63;3.40;;;;;;;-146.27;80.68;81669.13;5022891;28;20041;-74
2023/08/05 08:39:45;;;;;;;7.88;4.00;;;;;;;-146.27;80.03;81741.41;5023819;28;22275;-75
2023/08/05 08:42:11;;;;;;;5.60;4.30;;;;;;;-146.27;81.36;81717.31;5025266;28;20025;-77
2023/08/05 08:44:38;;;;;;;8.45;5.55;;;;;;;-146.27;80.89;81753.47;5030731;28;20033;-76
2023/08/05 08:47:04;;;;;;;10.88;5.25;;;;;;;-146.27;80.62;81747.44;5028755;28;20041;-76
2023/08/05 08:49:31;;;;;;;10.68;5.05;;;;;;;-146.27;80.76;81733.38;5029000;28;20483;-76
2023/08/05 08:51:57;;;;;;;7.55;4.68;;;;;;;-146.27;80.01;81727.38;5024977;28;20029;-76
2023/08/05 08:54:26;;;;;;;8.00;4.07;;;;;;;-146.27;80.18;81677.16;5029556;28;20057;-75
2023/08/05 08:56:52;;;;;;;9.98;4.28;;;;;;;-146.27;79.75;81653.06;5030716;28;20033;-74
2023/08/05 08:59:17;;;;;;;9.07;5.05;;;;;;;-146.27;79.97;81711.28;5028604;28;20036;-77
2023/08/05 09:01:45;;;;;;;9.40;5.05;;;;;;;-146.27;80.32;81821.75;5027189;28;20030;-76
2023/08/05 09:04:11;;;;;;;15.20;5.60;;;;;;;-146.27;80.42;81783.59;5020980;28;20714;-74
2023/08/05 09:06:40;;;;;;;7.65;4.35;;;;;;;-146.27;80.56;81797.66;5024047;28;20025;-75
2023/08/05 09:09:06;;;;;;;7.13;4.60;;;;;;;-146.27;80.92;81823.78;5038386;28;20025;-75
2023/08/05 09:11:31;;;;;;;5.65;4.53;;;;;;;-146.27;81.08;81819.75;5027439;28;20033;-76
2023/08/05 09:13:57;;;;;;;8.50;4.75;;;;;;;-146.27;80.70;81865.94;5023353;28;20047;-75
2023/08/05 09:16:24;;;;;;;7.45;4.20;;;;;;;-146.27;81.08;81861.94;5020792;28;20397;-76
2023/08/05 09:18:54;;;;;;;6.93;3.97;;;;;;;-146.27;81.59;81853.91;5025827;28;20033;-75
2023/08/05 09:21:24;;;;;;;8.50;3.75;;;;;;;-146.27;81.84;81849.88;5029129;28;20060;-76
2023/08/05 09:23:50;;;;;;;7.47;4.32;;;;;;;-146.27;81.61;81821.75;5026213;28;20349;-77
2023/08/05 09:26:29;;;;;;;7.28;4.25;;;;;;;-146.27;82.11;81873.97;5027791;28;20049;-75
2023/08/05 09:28:58;;;;;;;6.50;3.78;;;;;;;-146.27;82.38;81869.97;5024409;28;20018;-76
2023/08/05 09:31:23;;;;;;;6.63;3.97;;;;;;;-146.27;80.37;81861.94;5014699;28;20509;-74
2023/08/05 09:33:50;;;;;;;6.07;3.22;;;;;;;-146.27;80.20;81819.75;5020439;28;20104;-76
2023/08/05 09:36:22;;;;;;;6.38;3.38;;;;;;;-146.27;79.33;81831.81;5038238;28;20045;-75
2023/08/05 09:39:11;;;;;;;5.20;2.80;;;;;;;-146.27;79.23;81859.94;5024140;28;20017;-74
2023/08/05 09:41:37;;;;;;;3.65;2.65;;;;;;;-146.27;79.04;81809.72;5024759;28;20025;-76
2023/08/05 09:44:04;;;;;;;5.53;2.70;;;;;;;-146.27;79.12;81821.75;5025953;28;20511;-76
2023/08/05 09:46:39;;;;;;;9.93;2.75;;;;;;;-146.27;79.25;81787.63;5025995;28;20033;-74
2023/08/05 09:49:06;;;;;;;6.70;2.70;;;;;;;-146.27;77.97;81795.66;5039787;28;20036;-75
2023/08/05 09:51:32;;;;;;;4.78;2.47;;;;;;;-146.27;77.99;81857.91;5030308;28;20029;-76
2023/08/05 09:54:02;;;;;;;5.45;2.47;;;;;;;-146.27;77.65;81849.88;5023776;28;20090;-76
2023/08/05 09:56:28;;;;;;;6.03;3.25;;;;;;;-146.27;77.13;81839.84;5025118;28;20072;-75
2023/08/05 09:58:54;;;;;;;5.97;2.22;;;;;;;-146.27;77.30;81837.81;5026191;28;20029;-76
2023/08/05 10:01:22;;;;;;;3.83;2.00;;;;;;;-146.27;75.52;81823.78;5017698;28;20035;-74
2023/08/05 10:03:49;;;;;;;5.35;1.90;;;;;;;-146.27;75.20;81735.41;5022652;28;20033;-75
2023/08/05 10:06:15;;;;;;;5.07;1.95;;;;;;;-146.27;74.72;81823.78;5026907;28;20053;-76
2023/08/05 10:08:42;;;;;;;6.50;2.03;;;;;;;-146.27;73.12;81787.63;5028138;28;20476;-77
2023/08/05 10:11:08;;;;;;;7.05;2.05;;;;;;;-146.27;72.48;81765.53;5026679;28;20079;-70
2023/08/05 10:13:39;;;;;;;9.43;2.58;;;;;;;-146.27;72.10;81821.75;5029828;28;20389;-75
2023/08/05 10:16:07;;;;;;;4.05;2.60;;;;;;;-146.27;72.75;81791.63;5022867;28;20029;-75
2023/08/05 10:18:34;;;;;;;5.45;2.50;;;;;;;-146.27;72.78;81737.41;5025836;28;20061;-74
2023/08/05 10:21:04;;;;;;;9.95;2.78;;;;;;;-146.27;72.80;81813.72;5021898;28;20026;-74
2023/08/05 10:23:32;;;;;;;7.15;2.47;;;;;;;-146.27;73.32;81725.34;5025066;28;20031;-74
2023/08/05 10:26:00;;;;;;;7.90;2.50;;;;;;;-146.27;73.80;81741.41;5028973;28;20571;-76
2023/08/05 10:28:25;;;;;;;9.00;3.20;;;;;;;-146.27;74.63;81675.16;5018531;28;20050;-75
2023/08/05 10:30:53;;;;;;;8.77;3.95;;;;;;;-146.27;73.75;81739.41;5021359;28;20459;-76
2023/08/05 10:33:19;;;;;;;5.18;3.35;;;;;;;-146.27;73.55;81739.41;5018208;28;20065;-75
2023/08/05 10:35:46;;;;;;;11.02;3.67;;;;;;;-146.27;74.58;81747.44;5020589;28;20120;-74
2023/08/05 10:38:20;;;;;;;6.70;3.65;;;;;;;-146.27;74.03;81725.34;5025023;28;20079;-73
2023/08/05 10:41:00;;;;;;;7.65;3.72;;;;;;;-146.27;74.69;81805.69;5018196;28;20032;-74
2023/08/05 10:43:31;;;;;;;8.82;4.45;;;;;;;-146.27;75.25;81789.63;5027930;28;20025;-73
2023/08/05 10:46:00;;;;;;;7.40;4.63;;;;;;;-146.27;75.49;81817.75;5020420;28;20029;-75
2023/08/05 10:48:44;;;;;;;8.32;4.57;;;;;;;-146.27;75.50;81789.63;5026847;28;20036;-76
2023/08/05 10:51:25;;;;;;;8.60;4.32;;;;;;;-146.27;75.58;81781.59;5023750;28;20585;-76
2023/08/05 10:53:50;;;;;;;7.95;4.63;;;;;;;-146.27;75.64;81825.78;5026049;28;20309;-75
2023/08/05 10:56:15;;;;;;;8.70;3.75;;;;;;;-146.27;76.01;81781.59;5023803;28;20033;-75
2023/08/05 10:58:48;;;;;;;5.72;3.80;;;;;;;-146.27;75.84;81869.97;5021422;28;20059;-76
2023/08/05 11:01:14;;;;;;;5.95;3.65;;;;;;;-146.27;75.64;81857.91;5027488;28;20037;-75
2023/08/05 11:03:42;;;;;;;9.98;4.00;;;;;;;-146.27;76.38;81876.00;5025725;28;20026;-75
2023/08/05 11:06:09;;;;;;;7.53;3.22;;;;;;;-146.27;74.66;81942.28;5026041;28;20076;-75
2023/08/05 11:08:36;;;;;;;5.65;3.03;;;;;;;-146.27;75.13;81948.31;5028643;28;20515;-75
2023/08/05 11:11:09;;;;;;;7.10;3.60;;;;;;;-146.27;76.94;82010.56;5031483;28;20595;-74
2023/08/05 11:13:43;;;;;;;6.93;3.22;;;;;;;-146.27;82.93;82080.88;5030150;28;20465;-74